This is the latest recevied weather packets stored in our database for station/object EA1FLU-10. If no packets are shown the sender has not sent any weather packets the latest 10 day(s).
| Time | Temp. | Humidity | Pressure | Rain* | Wind** | Luminosity | Snow |
|---|---|---|---|---|---|---|---|
| 1777853741 | 17.22° C | 50% | 1017.8 hPa | - | - | - | - |
| 1777851941 | 17.78° C | 50% | 1017.9 hPa | - | - | - | - |
| 1777850141 | 17.78° C | 50% | 1018 hPa | - | - | - | - |
| 1777848341 | 18.33° C | 50% | 1017.9 hPa | - | - | - | - |
| 1777846541 | 18.33° C | 49% | 1018.1 hPa | - | - | - | - |
| 1777844741 | 18.33° C | 49% | 1018 hPa | - | - | - | - |
| 1777842941 | 18.89° C | 48% | 1018 hPa | - | - | - | - |
| 1777841141 | 19.44° C | 47% | 1017.5 hPa | - | - | - | - |
| 1777839341 | 20° C | 46% | 1017.3 hPa | - | - | - | - |
| 1777837546 | 20° C | 45% | 1017 hPa | - | - | - | - |
| 1777835740 | 20.56° C | 45% | 1016.6 hPa | - | - | - | - |
| 1777833945 | 21.11° C | 45% | 1016.4 hPa | - | - | - | - |
| 1777832140 | 21.67° C | 43% | 1016.4 hPa | - | - | - | - |
| 1777830340 | 22.22° C | 43% | 1016.2 hPa | - | - | - | - |
| 1777828540 | 22.78° C | 42% | 1016.1 hPa | - | - | - | - |
| 1777826740 | 23.33° C | 41% | 1016.1 hPa | - | - | - | - |
| 1777824940 | 24.44° C | 39% | 1015.6 hPa | - | - | - | - |
| 1777823140 | 25° C | 38% | 1015 hPa | - | - | - | - |
| 1777821340 | 25° C | 37% | 1015 hPa | - | - | - | - |
| 1777819540 | 24.44° C | 37% | 1015.3 hPa | - | - | - | - |
| 1777817740 | 23.89° C | 40% | 1015.7 hPa | - | - | - | - |
| 1777815940 | 23.89° C | 38% | 1016.2 hPa | - | - | - | - |
| 1777814140 | 23.33° C | 37% | 1016.4 hPa | - | - | - | - |
| 1777812340 | 23.33° C | 39% | 1016.6 hPa | - | - | - | - |
| 1777810540 | 23.89° C | 38% | 1016.9 hPa | - | - | - | - |
* Rain since midnight (hover to see other rain measurements)
** Current wind speed in m/s (hover to see current wind gust speed)